createdAt,value
2023-03-23T15:59:44.690Z,15.70
2023-03-23T16:02:22.601Z,15.70
2023-03-23T16:04:52.944Z,15.80
2023-03-23T16:07:24.651Z,15.80
2023-03-23T16:09:52.857Z,15.80
2023-03-23T16:12:21.233Z,15.70
2023-03-23T16:14:49.476Z,15.70
2023-03-23T16:17:20.541Z,15.60
2023-03-23T16:19:48.888Z,15.60
2023-03-23T16:22:18.784Z,15.60
2023-03-23T16:24:47.237Z,15.50
2023-03-23T16:27:15.635Z,15.40
2023-03-23T16:30:02.184Z,15.40
2023-03-23T16:32:31.906Z,15.40
2023-03-23T16:35:00.344Z,15.30
2023-03-23T16:37:33.271Z,15.30
2023-03-23T16:40:02.033Z,15.30
2023-03-23T16:42:30.720Z,15.30
2023-03-23T16:44:59.139Z,15.20
2023-03-23T16:47:27.432Z,15.20
2023-03-23T16:49:55.747Z,15.00
2023-03-23T16:52:24.167Z,15.10
2023-03-23T16:54:53.686Z,15.10
2023-03-23T16:57:22.144Z,15.00
2023-03-23T16:59:50.366Z,14.90
2023-03-23T17:02:18.998Z,14.70
2023-03-23T17:04:48.141Z,14.50
2023-03-23T17:07:16.588Z,14.40
2023-03-23T17:09:45.258Z,14.20
2023-03-23T17:12:14.894Z,13.90
2023-03-23T17:14:43.188Z,13.80
2023-03-23T17:17:11.442Z,13.70
2023-03-23T17:19:40.044Z,13.50
2023-03-23T17:22:08.219Z,13.40
2023-03-23T17:24:36.321Z,12.90
2023-03-23T17:27:04.664Z,13.20
2023-03-23T17:29:34.347Z,13.10
2023-03-23T17:32:02.794Z,13.10
2023-03-23T17:34:31.206Z,13.10
2023-03-23T17:36:59.442Z,13.10
2023-03-23T17:39:28.127Z,13.00
2023-03-23T17:41:56.528Z,12.90
2023-03-23T17:44:24.744Z,12.80
2023-03-23T17:46:56.384Z,12.70
2023-03-23T17:49:24.732Z,12.60
2023-03-23T17:51:53.062Z,12.50
2023-03-23T17:54:21.725Z,12.40
2023-03-23T17:56:50.086Z,12.30
2023-03-23T17:59:18.244Z,12.20
2023-03-23T18:01:49.099Z,12.20
2023-03-23T18:04:20.066Z,12.10
2023-03-23T18:06:48.219Z,12.10
2023-03-23T18:09:16.700Z,12.00
2023-03-23T18:11:44.804Z,12.00
2023-03-23T18:14:13.122Z,12.00
2023-03-23T18:16:41.399Z,12.00
2023-03-23T18:19:09.829Z,12.00
2023-03-23T18:21:39.384Z,11.80
2023-03-23T18:24:08.309Z,11.90
2023-03-23T18:26:36.869Z,11.80
2023-03-23T18:29:05.232Z,11.80
2023-03-23T18:31:34.198Z,11.70
2023-03-23T18:34:02.628Z,11.70
2023-03-23T18:36:30.787Z,11.70
2023-03-23T18:39:00.427Z,11.60
2023-03-23T18:41:28.746Z,11.60
2023-03-23T18:43:57.889Z,11.60
2023-03-23T18:46:26.516Z,11.60
2023-03-23T18:48:54.869Z,12.60
2023-03-23T18:51:23.124Z,11.60
2023-03-23T18:53:51.293Z,11.60
2023-03-23T18:56:21.114Z,11.60
2023-03-23T18:58:49.599Z,11.60
2023-03-23T19:01:18.891Z,11.50
2023-03-23T19:03:47.773Z,11.40
2023-03-23T19:06:19.471Z,11.30
2023-03-23T19:08:48.027Z,11.30
2023-03-23T19:11:17.042Z,11.20
2023-03-23T19:13:58.051Z,11.20
2023-03-23T19:16:29.448Z,11.10
2023-03-23T19:18:57.555Z,11.20
2023-03-23T19:21:26.378Z,11.20
2023-03-23T19:23:56.999Z,11.20
2023-03-23T19:26:29.795Z,11.20
2023-03-23T19:31:30.594Z,11.10
2023-03-23T19:33:58.706Z,11.10
2023-03-23T19:36:27.257Z,11.10
2023-03-23T19:38:57.631Z,11.10
2023-03-23T19:41:28.797Z,11.10
2023-03-23T19:43:59.380Z,11.10
2023-03-23T19:46:30.258Z,11.10
2023-03-23T19:48:59.839Z,11.00
2023-03-23T19:51:28.568Z,11.00
2023-03-23T19:53:58.045Z,11.00
2023-03-23T19:56:26.512Z,11.10
2023-03-23T19:58:55.040Z,11.10
2023-03-23T20:01:24.665Z,11.10
2023-03-23T20:03:53.247Z,11.30
2023-03-23T20:06:22.482Z,11.20
2023-03-23T20:08:50.579Z,11.20
2023-03-23T20:11:20.189Z,11.20
2023-03-23T20:13:49.357Z,11.20
2023-03-23T20:16:18.915Z,11.30
2023-03-23T20:18:49.969Z,11.30
2023-03-23T20:21:20.493Z,11.30
2023-03-23T20:23:49.307Z,11.30
2023-03-23T20:26:19.824Z,11.30
2023-03-23T20:28:48.172Z,11.30
2023-03-23T20:31:23.369Z,11.40
2023-03-23T20:34:01.997Z,11.40
2023-03-23T20:36:34.666Z,11.40
2023-03-23T20:39:03.729Z,11.40
2023-03-23T20:41:32.903Z,11.40
2023-03-23T20:44:00.995Z,11.40
2023-03-23T20:46:29.565Z,11.40
2023-03-23T20:49:00.890Z,11.40
2023-03-23T20:51:29.161Z,11.40
2023-03-23T20:53:57.253Z,11.40
2023-03-23T20:56:25.582Z,11.50
2023-03-23T20:58:53.721Z,11.50
2023-03-23T21:01:22.668Z,11.50
2023-03-23T21:03:52.253Z,11.50
2023-03-23T21:06:22.315Z,11.50
2023-03-23T21:08:52.412Z,11.40
2023-03-23T21:11:22.724Z,11.40
2023-03-23T21:13:51.749Z,11.40
2023-03-23T21:16:20.521Z,11.30
2023-03-23T21:18:48.747Z,11.30
2023-03-23T21:21:18.472Z,11.30
2023-03-23T21:23:52.914Z,11.30
2023-03-23T21:26:23.109Z,11.30
2023-03-23T21:28:54.062Z,11.30
2023-03-23T21:31:25.588Z,11.30
2023-03-23T21:33:53.779Z,11.20
2023-03-23T21:36:21.936Z,11.20
2023-03-23T21:38:51.346Z,11.10
2023-03-23T21:41:19.386Z,11.00
2023-03-23T21:43:47.426Z,10.90
2023-03-23T21:46:19.010Z,10.80
2023-03-23T21:48:50.779Z,10.70
2023-03-23T21:51:21.403Z,10.70
2023-03-23T21:53:54.112Z,10.60
2023-03-23T21:56:24.146Z,10.50
2023-03-23T21:58:52.244Z,10.50
2023-03-23T22:01:20.735Z,10.40
2023-03-23T22:03:49.562Z,10.40
2023-03-23T22:06:23.302Z,10.40
2023-03-23T22:08:52.873Z,10.30
2023-03-23T22:11:23.376Z,10.30
2023-03-23T22:13:51.768Z,10.30
2023-03-23T22:16:21.128Z,10.20
2023-03-23T22:21:18.878Z,10.20
2023-03-23T22:23:47.475Z,10.10
2023-03-23T22:26:17.468Z,10.10
2023-03-23T22:28:47.562Z,10.10
2023-03-23T22:31:18.768Z,10.10
2023-03-23T22:33:47.884Z,10.10
2023-03-23T22:36:16.710Z,10.00
2023-03-23T22:38:47.156Z,10.00
2023-03-23T22:41:19.442Z,10.00
2023-03-23T22:43:48.262Z,9.30
2023-03-23T22:46:16.985Z,10.10
2023-03-23T22:48:45.783Z,10.10
2023-03-23T22:51:15.586Z,10.10
2023-03-23T22:53:44.402Z,10.10
2023-03-23T22:56:13.435Z,10.00
2023-03-23T22:58:42.936Z,10.10
2023-03-23T23:01:15.835Z,10.10
2023-03-23T23:03:44.064Z,10.20
2023-03-23T23:06:13.453Z,10.20
2023-03-23T23:08:42.804Z,10.20
2023-03-23T23:11:13.827Z,10.20
2023-03-23T23:13:43.834Z,10.20
2023-03-23T23:16:13.216Z,10.20
2023-03-23T23:18:41.830Z,10.20
2023-03-23T23:21:11.334Z,10.20
2023-03-23T23:23:39.940Z,10.20
2023-03-23T23:26:09.063Z,10.20
2023-03-23T23:28:37.596Z,10.20
2023-03-23T23:31:19.484Z,10.20
2023-03-23T23:33:47.781Z,10.20
2023-03-23T23:36:15.954Z,10.20
2023-03-23T23:38:44.153Z,10.10
2023-03-23T23:41:12.374Z,10.10
2023-03-23T23:43:40.801Z,10.10
2023-03-23T23:46:10.559Z,10.10
2023-03-23T23:48:38.796Z,10.00
2023-03-23T23:51:07.747Z,10.00
2023-03-23T23:53:35.945Z,10.00
2023-03-23T23:56:05.969Z,10.00
2023-03-23T23:58:34.158Z,10.00
